createdAt,value
2019-05-23T00:01:16.526Z,5.53
2019-05-23T00:03:19.975Z,5.03
2019-05-23T00:05:23.710Z,4.53
2019-05-23T00:07:27.610Z,4.83
2019-05-23T00:09:31.284Z,5.80
2019-05-23T00:11:50.755Z,5.73
2019-05-23T00:13:57.677Z,4.43
2019-05-23T00:16:01.401Z,5.23
2019-05-23T00:18:04.341Z,5.60
2019-05-23T00:20:07.304Z,5.80
2019-05-23T00:22:10.987Z,5.30
2019-05-23T00:24:14.020Z,5.20
2019-05-23T00:26:17.363Z,5.07
2019-05-23T00:28:20.265Z,4.70
2019-05-23T00:30:35.705Z,4.37
2019-05-23T00:32:40.646Z,5.07
2019-05-23T00:34:43.549Z,4.77
2019-05-23T00:36:47.300Z,4.70
2019-05-23T00:38:50.292Z,4.70
2019-05-23T00:40:53.251Z,4.47
2019-05-23T00:42:56.181Z,4.60
2019-05-23T00:44:59.209Z,5.27
2019-05-23T00:47:02.228Z,5.80
2019-05-23T00:49:05.154Z,5.13
2019-05-23T00:51:09.159Z,6.07
2019-05-23T00:53:12.824Z,4.60
2019-05-23T00:55:15.760Z,5.00
2019-05-23T00:57:19.755Z,5.75
2019-05-23T00:59:27.032Z,4.63
2019-05-23T01:01:27.236Z,4.30
2019-05-23T01:03:30.203Z,5.40
2019-05-23T01:05:33.115Z,5.50
2019-05-23T01:07:36.817Z,5.13
2019-05-23T01:09:40.651Z,4.80
2019-05-23T01:11:43.588Z,5.37
2019-05-23T01:13:46.503Z,4.27
2019-05-23T01:15:49.703Z,5.10
2019-05-23T01:17:52.724Z,5.00
2019-05-23T01:19:55.754Z,4.67
2019-05-23T01:22:01.420Z,4.60
2019-05-23T01:24:05.091Z,5.50
2019-05-23T01:26:08.773Z,5.60
2019-05-23T01:28:12.496Z,5.47
2019-05-23T01:30:30.424Z,4.73
2019-05-23T01:32:37.112Z,4.90
2019-05-23T01:34:40.073Z,4.80
2019-05-23T01:36:43.851Z,5.27
2019-05-23T01:38:46.801Z,5.50
2019-05-23T01:40:50.399Z,5.90
2019-05-23T01:42:53.343Z,6.07
2019-05-23T01:44:57.039Z,5.00
2019-05-23T01:47:00.809Z,4.40
2019-05-23T01:49:03.826Z,4.90
2019-05-23T01:51:07.511Z,5.03
2019-05-23T01:53:11.347Z,4.57
2019-05-23T01:55:14.292Z,4.90
2019-05-23T01:57:17.332Z,4.90
2019-05-23T01:59:20.435Z,5.37
2019-05-23T02:01:23.469Z,4.30
2019-05-23T02:03:27.268Z,5.90
2019-05-23T02:05:31.175Z,5.40
2019-05-23T02:07:35.668Z,5.40
2019-05-23T02:09:38.677Z,5.23
2019-05-23T02:11:41.647Z,5.47
2019-05-23T02:13:45.415Z,6.07
2019-05-23T02:15:48.454Z,5.80
2019-05-23T02:17:53.027Z,5.00
2019-05-23T02:19:55.977Z,5.00
2019-05-23T02:21:59.016Z,5.90
2019-05-23T02:24:02.226Z,5.87
2019-05-23T02:26:06.021Z,5.70
2019-05-23T02:28:09.786Z,5.50
2019-05-23T02:30:32.253Z,5.50
2019-05-23T02:32:16.538Z,5.23
2019-05-23T02:34:19.695Z,6.57
2019-05-23T02:36:23.515Z,5.43
2019-05-23T02:38:28.055Z,5.67
2019-05-23T02:40:32.022Z,5.70
2019-05-23T02:42:54.633Z,6.17
2019-05-23T02:44:57.882Z,5.67
2019-05-23T02:47:06.356Z,6.50
2019-05-23T02:49:10.151Z,6.07
2019-05-23T02:51:13.848Z,5.20
2019-05-23T02:53:16.983Z,5.43
2019-05-23T02:55:20.731Z,6.37
2019-05-23T02:57:23.668Z,6.50
2019-05-23T02:59:31.184Z,6.73
2019-05-23T03:01:51.963Z,6.00
2019-05-23T03:03:54.891Z,6.00
2019-05-23T03:06:01.292Z,5.83
2019-05-23T03:08:04.346Z,6.40
2019-05-23T03:10:08.040Z,5.80
2019-05-23T03:12:11.744Z,5.93
2019-05-23T03:14:15.473Z,5.50
2019-05-23T03:16:18.573Z,5.60
2019-05-23T03:18:21.628Z,6.63
2019-05-23T03:20:25.348Z,6.30
2019-05-23T03:22:28.286Z,6.27
2019-05-23T03:24:31.316Z,6.80
2019-05-23T03:26:57.777Z,5.80
2019-05-23T03:29:00.814Z,6.80
2019-05-23T03:31:28.760Z,6.20
2019-05-23T03:33:13.772Z,7.13
2019-05-23T03:35:20.155Z,5.77
2019-05-23T03:37:23.091Z,5.83
2019-05-23T03:39:26.822Z,6.23
2019-05-23T03:41:29.742Z,5.40
2019-05-23T03:43:34.175Z,6.80
2019-05-23T03:45:39.773Z,5.63
2019-05-23T03:47:41.751Z,5.83
2019-05-23T03:49:44.781Z,5.90
2019-05-23T03:51:48.785Z,6.33
2019-05-23T03:53:51.714Z,7.47
2019-05-23T03:55:54.646Z,6.77
2019-05-23T03:57:58.381Z,7.30
2019-05-23T04:00:01.355Z,6.80
2019-05-23T04:02:04.415Z,6.00
2019-05-23T04:04:08.152Z,7.13
2019-05-23T04:06:11.219Z,6.50
2019-05-23T04:08:14.140Z,6.50
2019-05-23T04:10:17.240Z,5.63
2019-05-23T04:12:20.228Z,7.20
2019-05-23T04:14:23.177Z,7.13
2019-05-23T04:16:30.239Z,5.83
2019-05-23T04:18:29.234Z,6.30
2019-05-23T04:20:33.449Z,6.53
2019-05-23T04:22:36.702Z,6.80
2019-05-23T04:24:39.638Z,6.57
2019-05-23T04:26:42.616Z,6.80
2019-05-23T04:28:45.856Z,7.30
2019-05-23T04:30:49.580Z,7.20
2019-05-23T04:32:52.507Z,6.00
2019-05-23T04:34:55.576Z,7.70
2019-05-23T04:36:58.592Z,6.60
2019-05-23T04:39:02.288Z,7.13
2019-05-23T04:41:05.462Z,7.10
2019-05-23T04:43:08.399Z,8.20
2019-05-23T04:45:11.338Z,7.27
2019-05-23T04:47:14.757Z,9.07
2019-05-23T04:49:18.578Z,8.60
2019-05-23T04:51:21.496Z,9.00
2019-05-23T04:53:25.257Z,9.40
2019-05-23T04:55:28.264Z,7.60
2019-05-23T04:57:31.343Z,8.30
2019-05-23T04:59:34.393Z,8.97
2019-05-23T05:01:38.230Z,7.87
2019-05-23T05:03:41.281Z,8.27
2019-05-23T05:05:45.128Z,7.83
2019-05-23T05:07:48.074Z,8.63
2019-05-23T05:09:51.066Z,9.27
2019-05-23T05:11:54.731Z,7.67
2019-05-23T05:13:58.428Z,7.73
2019-05-23T05:16:02.131Z,9.53
2019-05-23T05:18:05.674Z,8.87
2019-05-23T05:20:08.592Z,9.53
2019-05-23T05:22:11.572Z,9.77
2019-05-23T05:24:16.333Z,9.03
2019-05-23T05:26:22.203Z,9.60
2019-05-23T05:28:25.341Z,8.60
2019-05-23T05:30:28.347Z,9.43
2019-05-23T05:32:43.991Z,8.00
2019-05-23T05:34:35.239Z,8.53
2019-05-23T05:36:38.990Z,8.80
2019-05-23T05:38:41.927Z,9.40
2019-05-23T05:40:45.705Z,8.43
2019-05-23T05:42:49.529Z,8.60
2019-05-23T05:44:52.637Z,7.37
2019-05-23T05:46:55.804Z,9.20
2019-05-23T05:48:59.607Z,8.30
2019-05-23T05:51:02.540Z,8.93
2019-05-23T05:53:05.531Z,8.97
2019-05-23T05:55:08.555Z,9.27
2019-05-23T05:57:11.508Z,9.73
2019-05-23T05:59:14.460Z,10.93
2019-05-23T06:01:32.993Z,8.77
2019-05-23T06:03:20.478Z,9.10
2019-05-23T06:05:29.879Z,9.30
2019-05-23T06:07:33.691Z,10.37
2019-05-23T06:09:36.723Z,9.10
2019-05-23T06:11:39.695Z,9.27
2019-05-23T06:13:43.425Z,8.33
2019-05-23T06:15:46.597Z,7.60
2019-05-23T06:17:49.564Z,9.07
2019-05-23T06:19:53.369Z,7.40
2019-05-23T06:21:56.398Z,7.93
2019-05-23T06:23:59.469Z,8.83
2019-05-23T06:26:02.619Z,8.83
2019-05-23T06:28:06.526Z,10.17
2019-05-23T06:30:10.240Z,10.23
2019-05-23T06:32:15.827Z,7.83
2019-05-23T06:34:18.785Z,9.37
2019-05-23T06:36:21.815Z,9.70
2019-05-23T06:38:24.887Z,10.30
2019-05-23T06:40:28.652Z,9.83
2019-05-23T06:42:31.616Z,10.00
2019-05-23T06:44:34.589Z,8.93
2019-05-23T06:46:38.143Z,9.30
2019-05-23T06:48:45.853Z,10.43
2019-05-23T06:50:45.542Z,8.67
2019-05-23T06:52:48.687Z,8.10
2019-05-23T06:54:51.623Z,9.27
2019-05-23T06:56:54.659Z,9.63
2019-05-23T06:58:57.604Z,9.23
2019-05-23T07:01:01.484Z,8.73
2019-05-23T07:03:04.545Z,8.60
2019-05-23T07:05:07.553Z,8.83
2019-05-23T07:07:10.738Z,10.03
2019-05-23T07:09:13.808Z,9.37
2019-05-23T07:11:16.832Z,8.30
2019-05-23T07:13:20.518Z,8.47
2019-05-23T07:15:25.347Z,8.83
2019-05-23T07:17:28.297Z,8.70
2019-05-23T07:19:31.236Z,10.00
2019-05-23T07:21:34.993Z,8.83
2019-05-23T07:23:38.040Z,8.00
2019-05-23T07:25:41.079Z,9.47
2019-05-23T07:27:44.103Z,9.37
2019-05-23T07:29:47.046Z,8.60
2019-05-23T07:31:50.148Z,10.63
2019-05-23T07:34:01.665Z,9.40
2019-05-23T07:35:56.974Z,9.70
2019-05-23T07:37:59.896Z,9.07
2019-05-23T07:40:02.849Z,9.27
2019-05-23T07:42:05.794Z,10.27
2019-05-23T07:44:09.538Z,10.13
2019-05-23T07:46:12.639Z,10.40
2019-05-23T07:48:17.322Z,11.38
2019-05-23T07:50:20.363Z,10.97
2019-05-23T07:52:23.428Z,11.37
2019-05-23T07:54:29.881Z,8.57
2019-05-23T07:56:33.319Z,11.67
2019-05-23T07:58:37.081Z,10.30
2019-05-23T08:00:56.757Z,9.73
2019-05-23T08:02:59.816Z,11.00
2019-05-23T08:05:02.788Z,9.60
2019-05-23T08:07:05.758Z,10.30
2019-05-23T08:09:09.518Z,10.73
2019-05-23T08:11:12.669Z,9.37
2019-05-23T08:13:16.549Z,11.95
2019-05-23T08:15:20.353Z,10.20
2019-05-23T08:17:24.183Z,11.10
2019-05-23T08:19:27.115Z,10.00
2019-05-23T08:21:30.070Z,10.73
2019-05-23T08:23:33.023Z,11.17
2019-05-23T08:25:36.090Z,11.90
2019-05-23T08:27:39.109Z,11.20
2019-05-23T08:29:42.288Z,10.77
2019-05-23T08:31:45.242Z,10.90
2019-05-23T08:33:48.250Z,10.77
2019-05-23T08:35:51.449Z,9.23
2019-05-23T08:37:54.390Z,10.23
2019-05-23T08:39:58.212Z,10.40
2019-05-23T08:42:01.206Z,9.33
2019-05-23T08:44:04.674Z,10.80
2019-05-23T08:46:07.453Z,10.00
2019-05-23T08:48:11.363Z,9.73
2019-05-23T08:50:14.303Z,9.60
2019-05-23T08:52:17.323Z,8.33
2019-05-23T08:54:21.170Z,8.80
2019-05-23T08:56:24.291Z,8.95
2019-05-23T08:58:27.221Z,8.63
2019-05-23T09:00:30.409Z,9.37
2019-05-23T09:02:33.490Z,8.80
2019-05-23T09:04:36.420Z,8.40
2019-05-23T09:06:39.552Z,9.50
2019-05-23T09:08:42.636Z,8.00
2019-05-23T09:10:45.723Z,7.03
2019-05-23T09:12:49.512Z,6.93
2019-05-23T09:14:53.229Z,9.70
2019-05-23T09:16:56.150Z,9.60
2019-05-23T09:18:59.099Z,8.23
2019-05-23T09:21:02.020Z,8.87
2019-05-23T09:23:05.038Z,9.03
2019-05-23T09:25:08.855Z,7.57
2019-05-23T09:27:12.061Z,7.00
2019-05-23T09:29:14.921Z,9.50
2019-05-23T09:31:18.132Z,8.90
2019-05-23T09:33:21.065Z,9.50
2019-05-23T09:35:24.766Z,8.93
2019-05-23T09:37:28.557Z,7.40
2019-05-23T09:39:31.487Z,8.03
2019-05-23T09:41:34.411Z,8.70
2019-05-23T09:43:37.432Z,8.57
2019-05-23T09:45:41.279Z,9.83
2019-05-23T09:47:44.339Z,10.17
2019-05-23T09:49:53.890Z,9.20
2019-05-23T09:51:53.591Z,8.90
2019-05-23T09:53:55.115Z,10.03
2019-05-23T09:55:58.245Z,9.80
2019-05-23T09:58:01.238Z,8.90
2019-05-23T10:00:05.186Z,9.43
2019-05-23T10:02:08.906Z,9.67
2019-05-23T10:04:11.845Z,8.87
2019-05-23T10:06:14.767Z,9.47
2019-05-23T10:08:17.737Z,8.90
2019-05-23T10:10:20.710Z,9.10
2019-05-23T10:12:23.703Z,8.90
2019-05-23T10:14:29.008Z,8.23
2019-05-23T10:16:31.987Z,8.87
2019-05-23T10:18:35.007Z,9.60
2019-05-23T10:20:38.152Z,8.90
2019-05-23T10:22:41.175Z,8.57
2019-05-23T10:24:44.863Z,8.63
2019-05-23T10:26:47.913Z,8.50
2019-05-23T10:28:50.892Z,10.00
2019-05-23T10:30:53.923Z,9.67
2019-05-23T10:32:57.968Z,9.43
2019-05-23T10:35:00.974Z,7.93
2019-05-23T10:37:03.900Z,8.50
2019-05-23T10:39:07.762Z,8.90
2019-05-23T10:41:10.697Z,7.83
2019-05-23T10:43:13.623Z,7.80
2019-05-23T10:45:17.319Z,8.10
2019-05-23T10:47:20.400Z,8.10
2019-05-23T10:49:23.408Z,8.53
2019-05-23T10:51:26.623Z,9.63
2019-05-23T10:53:30.308Z,9.20
2019-05-23T10:55:33.999Z,7.70
2019-05-23T10:57:36.964Z,8.83
2019-05-23T10:59:41.505Z,8.00
2019-05-23T11:01:44.474Z,8.90
2019-05-23T11:03:47.467Z,6.50
2019-05-23T11:05:51.891Z,8.40
2019-05-23T11:07:55.857Z,8.68
2019-05-23T11:09:58.936Z,8.80
2019-05-23T11:12:01.861Z,9.23
2019-05-23T11:14:08.345Z,8.90
2019-05-23T11:16:08.870Z,10.13
2019-05-23T11:18:12.568Z,8.97
2019-05-23T11:20:16.858Z,8.90
2019-05-23T11:22:19.943Z,8.57
2019-05-23T11:24:22.973Z,9.10
2019-05-23T11:26:26.055Z,8.70
2019-05-23T11:28:29.227Z,9.00
2019-05-23T11:30:39.788Z,8.77
2019-05-23T11:32:43.470Z,9.27
2019-05-23T11:34:46.544Z,10.13
2019-05-23T11:36:49.481Z,9.40
2019-05-23T11:38:52.406Z,9.60
2019-05-23T11:40:55.641Z,8.73
2019-05-23T11:42:59.363Z,8.50
2019-05-23T11:45:02.435Z,7.57
2019-05-23T11:47:05.471Z,8.30
2019-05-23T11:49:09.911Z,7.30
2019-05-23T11:51:13.719Z,7.10
2019-05-23T11:53:16.818Z,7.83
2019-05-23T11:55:20.641Z,9.10
2019-05-23T11:57:23.586Z,6.83
2019-05-23T11:59:27.410Z,8.83
2019-05-23T12:01:31.207Z,8.83
2019-05-23T12:03:34.151Z,7.37
2019-05-23T12:05:37.128Z,7.67
2019-05-23T12:07:40.159Z,7.03
2019-05-23T12:09:43.129Z,6.10
2019-05-23T12:11:46.953Z,6.87
2019-05-23T12:13:49.908Z,6.60
2019-05-23T12:15:53.610Z,6.73
2019-05-23T12:17:57.716Z,8.23
2019-05-23T12:20:01.392Z,6.20
2019-05-23T12:22:04.400Z,6.63
2019-05-23T12:24:08.202Z,8.93
2019-05-23T12:26:11.908Z,7.17
2019-05-23T12:28:16.112Z,7.40
2019-05-23T12:30:19.057Z,8.97
2019-05-23T12:32:22.082Z,6.83
2019-05-23T12:34:25.946Z,7.10
2019-05-23T12:36:29.007Z,7.47
2019-05-23T12:38:31.951Z,6.53
2019-05-23T12:40:36.115Z,6.53
2019-05-23T12:42:39.016Z,9.93
2019-05-23T12:44:41.964Z,10.13
2019-05-23T12:46:44.898Z,8.20
2019-05-23T12:49:05.607Z,9.27
2019-05-23T12:51:09.974Z,9.87
2019-05-23T12:53:13.004Z,8.60
2019-05-23T12:55:16.919Z,9.10
2019-05-23T12:57:20.635Z,8.10
2019-05-23T12:59:23.556Z,10.00
2019-05-23T13:01:26.514Z,8.60
2019-05-23T13:03:29.558Z,8.90
2019-05-23T13:05:33.277Z,9.10
2019-05-23T13:07:36.986Z,10.70
2019-05-23T13:09:40.128Z,9.27
2019-05-23T13:11:43.875Z,8.13
2019-05-23T13:13:46.863Z,7.80
2019-05-23T13:15:49.796Z,8.27
2019-05-23T13:17:53.491Z,9.37
2019-05-23T13:19:56.443Z,9.23
2019-05-23T13:21:59.547Z,7.27
2019-05-23T13:24:02.564Z,7.60
2019-05-23T13:26:06.288Z,7.90
2019-05-23T13:28:09.232Z,8.10
2019-05-23T13:30:13.031Z,8.37
2019-05-23T13:32:16.852Z,7.80
2019-05-23T13:34:20.551Z,7.20
2019-05-23T13:36:24.235Z,6.53
2019-05-23T13:38:27.444Z,6.77
2019-05-23T13:40:31.248Z,8.97
2019-05-23T13:42:35.044Z,9.00
2019-05-23T13:44:38.766Z,8.70
2019-05-23T13:46:41.853Z,6.70
2019-05-23T13:48:44.800Z,5.60
2019-05-23T13:50:48.529Z,6.70
2019-05-23T13:52:51.646Z,5.37
2019-05-23T13:54:54.638Z,5.60
2019-05-23T13:56:57.920Z,5.30
2019-05-23T13:59:00.632Z,4.90
2019-05-23T14:01:08.810Z,5.30
2019-05-23T14:03:07.416Z,5.37
2019-05-23T14:05:11.114Z,5.60
2019-05-23T14:07:14.045Z,7.43
2019-05-23T14:09:17.184Z,6.63
2019-05-23T14:11:20.141Z,6.90
2019-05-23T14:13:23.472Z,5.97
2019-05-23T14:15:32.963Z,4.90
2019-05-23T14:17:36.695Z,6.40
2019-05-23T14:19:39.755Z,6.23
2019-05-23T14:21:42.915Z,5.60
2019-05-23T14:23:45.970Z,6.07
2019-05-23T14:25:48.934Z,7.80
2019-05-23T14:27:55.259Z,7.67
2019-05-23T14:29:58.297Z,5.60
2019-05-23T14:32:16.947Z,5.30
2019-05-23T14:34:20.871Z,6.87
2019-05-23T14:36:39.743Z,5.97
2019-05-23T14:38:42.763Z,6.07
2019-05-23T14:40:45.832Z,5.37
2019-05-23T14:42:53.241Z,7.23
2019-05-23T14:44:54.611Z,6.73
2019-05-23T14:47:14.113Z,6.90
2019-05-23T14:49:19.583Z,7.13
2019-05-23T14:51:23.317Z,6.00
2019-05-23T14:53:29.923Z,5.90
2019-05-23T14:55:32.871Z,5.80
2019-05-23T14:57:36.596Z,5.07
2019-05-23T14:59:39.693Z,6.67
2019-05-23T15:01:43.402Z,6.90
2019-05-23T15:03:46.481Z,5.20
2019-05-23T15:05:49.528Z,6.53
2019-05-23T15:07:53.211Z,4.43
2019-05-23T15:09:56.269Z,5.07
2019-05-23T15:11:59.303Z,6.13
2019-05-23T15:14:02.233Z,5.10
2019-05-23T15:16:05.287Z,5.40
2019-05-23T15:18:08.301Z,6.43
2019-05-23T15:20:11.279Z,5.97
2019-05-23T15:22:14.231Z,5.03
2019-05-23T15:24:17.220Z,5.70
2019-05-23T15:26:23.530Z,5.80
2019-05-23T15:28:23.316Z,5.57
2019-05-23T15:30:26.368Z,6.97
2019-05-23T15:32:29.299Z,6.10
2019-05-23T15:34:34.935Z,5.40
2019-05-23T15:36:36.237Z,5.30
2019-05-23T15:38:39.411Z,5.45
2019-05-23T15:40:43.085Z,5.03
2019-05-23T15:42:47.564Z,5.67
2019-05-23T15:44:50.615Z,7.20
2019-05-23T15:46:53.540Z,6.67
2019-05-23T15:48:56.705Z,5.90
2019-05-23T15:50:59.643Z,7.07
2019-05-23T15:53:05.292Z,6.27
2019-05-23T15:55:12.612Z,6.00
2019-05-23T15:57:19.039Z,5.30
2019-05-23T15:59:24.593Z,7.07
2019-05-23T16:01:41.999Z,5.97
2019-05-23T16:03:55.085Z,5.10
2019-05-23T16:05:58.125Z,5.00
2019-05-23T16:08:02.109Z,5.87
2019-05-23T16:10:05.755Z,5.70
2019-05-23T16:12:08.688Z,4.47
2019-05-23T16:14:12.002Z,5.47
2019-05-23T16:16:15.680Z,5.40
2019-05-23T16:18:18.624Z,5.27
2019-05-23T16:20:21.854Z,4.50
2019-05-23T16:22:24.727Z,6.13
2019-05-23T16:24:27.708Z,5.43
2019-05-23T16:26:30.668Z,5.53
2019-05-23T16:28:33.703Z,5.07
2019-05-23T16:30:37.421Z,4.73
2019-05-23T16:32:41.233Z,5.27
2019-05-23T16:34:44.191Z,4.60
2019-05-23T16:36:47.187Z,5.30
2019-05-23T16:38:50.271Z,5.83
2019-05-23T16:40:53.191Z,5.53
2019-05-23T16:42:56.113Z,5.20
2019-05-23T16:44:59.075Z,6.40
2019-05-23T16:47:02.039Z,5.20
2019-05-23T16:49:04.968Z,5.20
2019-05-23T16:51:08.064Z,4.87
2019-05-23T16:53:10.988Z,5.97
2019-05-23T16:55:14.736Z,5.00
2019-05-23T16:57:21.955Z,4.37
2019-05-23T16:59:26.744Z,5.30
2019-05-23T17:01:57.770Z,5.50
2019-05-23T17:03:58.132Z,5.40
2019-05-23T17:06:01.599Z,6.17
2019-05-23T17:08:15.924Z,6.00
2019-05-23T17:10:19.855Z,6.40
2019-05-23T17:12:30.313Z,5.57
2019-05-23T17:14:35.984Z,5.53
2019-05-23T17:16:40.932Z,5.00
2019-05-23T17:18:59.079Z,5.10
2019-05-23T17:21:22.732Z,4.60
2019-05-23T17:23:31.514Z,4.13
2019-05-23T17:25:40.948Z,5.17
2019-05-23T17:27:44.633Z,4.80
2019-05-23T17:29:50.312Z,5.20
2019-05-23T17:31:53.231Z,5.70
2019-05-23T17:33:56.157Z,5.33
2019-05-23T17:36:00.076Z,5.20
2019-05-23T17:38:03.147Z,5.63
2019-05-23T17:40:23.230Z,5.37
2019-05-23T17:42:09.953Z,5.57
2019-05-23T17:44:12.888Z,5.10
2019-05-23T17:46:15.795Z,4.97
2019-05-23T17:48:19.625Z,4.87
2019-05-23T17:50:22.540Z,4.70
2019-05-23T17:52:25.492Z,4.77
2019-05-23T17:54:28.500Z,4.03
2019-05-23T17:56:31.551Z,4.67
2019-05-23T17:58:34.470Z,4.40
2019-05-23T18:00:38.316Z,4.50
2019-05-23T18:02:42.119Z,5.00
2019-05-23T18:04:45.821Z,4.37
2019-05-23T18:06:48.854Z,4.70
2019-05-23T18:08:51.791Z,5.17
2019-05-23T18:10:55.472Z,4.60
2019-05-23T18:12:59.367Z,4.03
2019-05-23T18:15:03.136Z,3.70
2019-05-23T18:17:06.179Z,4.20
2019-05-23T18:19:09.306Z,4.00
2019-05-23T18:21:12.229Z,3.80
2019-05-23T18:23:16.048Z,3.87
2019-05-23T18:25:19.787Z,3.00
2019-05-23T18:27:22.732Z,3.57
2019-05-23T18:29:26.434Z,4.13
2019-05-23T18:31:30.335Z,3.70
2019-05-23T18:33:34.011Z,3.80
2019-05-23T18:35:37.021Z,4.03
2019-05-23T18:37:40.841Z,4.37
2019-05-23T18:39:43.965Z,4.30
2019-05-23T18:41:46.831Z,4.00
2019-05-23T18:43:49.873Z,3.93
2019-05-23T18:45:53.673Z,3.40
2019-05-23T18:47:57.373Z,4.07
2019-05-23T18:50:01.205Z,3.50
2019-05-23T18:52:04.129Z,3.80
2019-05-23T18:54:07.587Z,3.83
2019-05-23T18:56:10.827Z,3.13
2019-05-23T18:58:19.082Z,3.97
2019-05-23T19:00:18.390Z,4.07
2019-05-23T19:02:21.447Z,3.23
2019-05-23T19:04:25.349Z,3.50
2019-05-23T19:06:29.091Z,5.80
2019-05-23T19:08:32.044Z,6.10
2019-05-23T19:10:34.963Z,7.00
2019-05-23T19:12:37.981Z,5.90
2019-05-23T19:14:41.787Z,4.50
2019-05-23T19:16:45.688Z,5.40
2019-05-23T19:18:49.373Z,5.33
2019-05-23T19:20:54.856Z,4.80
2019-05-23T19:22:56.056Z,4.73
2019-05-23T19:25:00.475Z,4.70
2019-05-23T19:27:04.336Z,4.53
2019-05-23T19:29:07.283Z,5.30
2019-05-23T19:31:10.204Z,4.63
2019-05-23T19:33:13.259Z,5.47
2019-05-23T19:35:16.211Z,4.80
2019-05-23T19:37:19.920Z,5.13
2019-05-23T19:39:23.844Z,4.60
2019-05-23T19:41:36.977Z,4.20
2019-05-23T19:43:29.771Z,4.47
2019-05-23T19:45:38.597Z,5.30
2019-05-23T19:47:41.552Z,5.40
2019-05-23T19:49:44.476Z,5.90
2019-05-23T19:51:48.279Z,5.53
2019-05-23T19:53:51.958Z,7.30
2019-05-23T19:55:55.892Z,9.07
2019-05-23T19:57:58.988Z,8.10
2019-05-23T20:00:02.138Z,7.90
2019-05-23T20:02:21.484Z,8.23
2019-05-23T20:04:28.479Z,6.53
2019-05-23T20:06:27.409Z,6.80
2019-05-23T20:08:30.453Z,6.40
2019-05-23T20:10:35.122Z,7.07
2019-05-23T20:12:38.292Z,5.53
2019-05-23T20:14:41.999Z,5.07
2019-05-23T20:16:45.007Z,5.43
2019-05-23T20:18:47.949Z,5.70
2019-05-23T20:20:51.649Z,5.30
2019-05-23T20:22:55.375Z,6.07
2019-05-23T20:24:58.318Z,5.80
2019-05-23T20:27:02.234Z,5.50
2019-05-23T20:29:05.117Z,5.50
2019-05-23T20:31:08.921Z,5.17
2019-05-23T20:33:12.721Z,6.63
2019-05-23T20:35:16.626Z,6.13
2019-05-23T20:37:20.315Z,6.43
2019-05-23T20:39:24.009Z,6.10
2019-05-23T20:41:26.959Z,6.30
2019-05-23T20:43:29.994Z,5.80
2019-05-23T20:45:34.496Z,6.17
2019-05-23T20:47:37.620Z,5.60
2019-05-23T20:49:40.555Z,5.27
2019-05-23T20:51:44.980Z,6.33
2019-05-23T20:53:48.818Z,5.17
2019-05-23T20:55:52.529Z,6.10
2019-05-23T20:57:55.447Z,6.20
2019-05-23T20:59:58.383Z,6.57
2019-05-23T21:02:01.320Z,6.40
2019-05-23T21:04:05.866Z,6.60
2019-05-23T21:06:09.627Z,6.43
2019-05-23T21:08:12.600Z,5.90
2019-05-23T21:10:21.395Z,7.27
2019-05-23T21:12:30.072Z,5.80
2019-05-23T21:14:28.138Z,6.20
2019-05-23T21:16:31.819Z,5.60
2019-05-23T21:18:34.842Z,6.47
2019-05-23T21:20:37.819Z,6.00
2019-05-23T21:22:42.236Z,5.73
2019-05-23T21:24:45.944Z,4.80
2019-05-23T21:26:48.879Z,6.00
2019-05-23T21:28:51.905Z,5.77
2019-05-23T21:30:55.807Z,6.33
2019-05-23T21:32:58.994Z,6.10
2019-05-23T21:35:02.694Z,6.40
2019-05-23T21:37:06.467Z,5.50
2019-05-23T21:39:09.479Z,5.67
2019-05-23T21:41:13.155Z,5.60
2019-05-23T21:43:16.142Z,5.47
2019-05-23T21:45:20.783Z,5.43
2019-05-23T21:47:24.463Z,5.67
2019-05-23T21:49:27.404Z,5.33
2019-05-23T21:51:30.321Z,5.20
2019-05-23T21:53:33.330Z,6.30
2019-05-23T21:55:37.351Z,6.63
2019-05-23T21:57:40.279Z,6.10
2019-05-23T21:59:43.309Z,6.87
2019-05-23T22:01:50.640Z,7.30
2019-05-23T22:04:08.473Z,6.50
2019-05-23T22:06:11.504Z,6.90
2019-05-23T22:08:15.260Z,6.80
2019-05-23T22:10:18.163Z,5.90
2019-05-23T22:12:21.692Z,5.83
2019-05-23T22:14:25.414Z,6.77
2019-05-23T22:16:28.449Z,5.50
2019-05-23T22:18:32.083Z,5.20
2019-05-23T22:20:35.023Z,5.67
2019-05-23T22:22:38.031Z,5.75
2019-05-23T22:24:41.833Z,6.30
2019-05-23T22:26:45.550Z,6.37
2019-05-23T22:28:48.468Z,5.20
2019-05-23T22:30:51.500Z,6.57
2019-05-23T22:32:55.508Z,5.77
2019-05-23T22:34:58.439Z,5.40
2019-05-23T22:37:01.477Z,5.27
2019-05-23T22:39:06.031Z,5.90
2019-05-23T22:41:08.977Z,4.57
2019-05-23T22:43:20.730Z,5.87
2019-05-23T22:45:16.477Z,5.40
2019-05-23T22:47:20.160Z,5.23
2019-05-23T22:49:23.076Z,6.00
2019-05-23T22:51:26.043Z,5.20
2019-05-23T22:53:29.742Z,5.87
2019-05-23T22:55:33.424Z,5.40
2019-05-23T22:57:36.371Z,5.43
2019-05-23T22:59:39.282Z,5.30
2019-05-23T23:01:42.287Z,5.20
2019-05-23T23:03:45.225Z,5.67
2019-05-23T23:05:48.218Z,5.63
2019-05-23T23:07:51.339Z,4.70
2019-05-23T23:09:55.156Z,5.43
2019-05-23T23:11:58.099Z,6.00
2019-05-23T23:14:01.020Z,5.47
2019-05-23T23:16:04.128Z,5.53
2019-05-23T23:18:07.063Z,5.60
2019-05-23T23:20:10.747Z,5.20
2019-05-23T23:22:13.875Z,5.10
2019-05-23T23:24:16.960Z,5.10
2019-05-23T23:26:19.880Z,5.80
2019-05-23T23:28:22.831Z,5.80
2019-05-23T23:30:42.586Z,5.90
2019-05-23T23:32:46.273Z,6.17
2019-05-23T23:34:50.046Z,6.40
2019-05-23T23:36:52.935Z,6.30
2019-05-23T23:38:55.950Z,5.87
2019-05-23T23:40:59.770Z,5.83
2019-05-23T23:43:02.690Z,5.27
2019-05-23T23:45:11.271Z,6.20
2019-05-23T23:47:20.187Z,6.57
2019-05-23T23:49:28.831Z,5.33
2019-05-23T23:51:38.375Z,5.63
2019-05-23T23:53:47.141Z,5.30
2019-05-23T23:55:55.616Z,6.07
2019-05-23T23:57:58.929Z,5.40
